Time;durP1;ratioP1;P1;durP2;ratioP2;P2;SDS_P1;SDS_P2;PMS_P1;PMS_P2;Temp;Humidity;BMP_temperature;BMP_pressure;BME280_temperature;BME280_humidity;BME280_pressure;Samples;Min_cycle;Max_cycle;Signal;HPM_P1;HPM_P2
2023/02/13 00:00:05;;;;;;;15.13;10.50;;;8.10;99.90;;;;;;5053011;28;20210;-64
2023/02/13 00:02:32;;;;;;;16.10;11.25;;;8.10;99.90;;;;;;5053716;28;20279;-65
2023/02/13 00:05:00;;;;;;;13.23;10.27;;;8.10;99.90;;;;;;5054071;28;20221;-65
2023/02/13 00:07:27;;;;;;;12.02;9.27;;;8.10;99.90;;;;;;5054225;28;20577;-65
2023/02/13 00:09:54;;;;;;;15.65;11.55;;;8.10;99.90;;;;;;5055582;28;20208;-64
2023/02/13 00:12:21;;;;;;;12.75;10.02;;;8.10;99.90;;;;;;5055103;28;20209;-62
2023/02/13 00:14:48;;;;;;;12.63;10.23;;;8.20;99.90;;;;;;5053104;28;20234;-62
2023/02/13 00:17:14;;;;;;;12.25;9.68;;;8.10;99.90;;;;;;5053434;28;20222;-61
2023/02/13 00:19:41;;;;;;;12.65;9.27;;;8.10;99.90;;;;;;5053533;28;20201;-63
2023/02/13 00:22:09;;;;;;;12.00;9.70;;;8.10;99.90;;;;;;5053382;28;20214;-62
2023/02/13 00:24:36;;;;;;;15.38;10.60;;;8.10;99.90;;;;;;5053393;28;20217;-63
2023/02/13 00:27:03;;;;;;;11.88;10.65;;;8.10;99.90;;;;;;5055343;28;20740;-63
2023/02/13 00:29:30;;;;;;;14.07;11.32;;;8.10;99.90;;;;;;5057398;28;20198;-62
2023/02/13 00:31:56;;;;;;;12.77;10.48;;;8.10;99.90;;;;;;5057156;28;20221;-63
2023/02/13 00:34:23;;;;;;;13.63;10.95;;;8.10;99.90;;;;;;5057770;28;20217;-61
2023/02/13 00:36:50;;;;;;;13.57;9.63;;;8.10;99.90;;;;;;5057363;28;20308;-62
2023/02/13 00:39:18;;;;;;;13.23;10.93;;;8.10;99.90;;;;;;5057422;28;20201;-61
2023/02/13 00:41:45;;;;;;;15.32;11.60;;;8.00;99.90;;;;;;5057097;28;20206;-62
2023/02/13 00:44:12;;;;;;;14.05;11.52;;;8.00;99.90;;;;;;5057331;28;20218;-62
2023/02/13 00:46:39;;;;;;;14.20;11.50;;;8.00;99.90;;;;;;5057912;28;20210;-62
2023/02/13 00:49:06;;;;;;;14.05;10.82;;;8.00;99.90;;;;;;5057238;28;20206;-62
2023/02/13 00:51:33;;;;;;;16.85;11.70;;;8.00;99.90;;;;;;5056674;28;20704;-62
2023/02/13 00:54:00;;;;;;;16.75;11.82;;;8.00;99.90;;;;;;5056722;28;20229;-62
2023/02/13 00:56:28;;;;;;;16.77;12.02;;;8.00;99.90;;;;;;5057645;28;20773;-61
2023/02/13 00:58:55;;;;;;;17.25;12.82;;;8.00;99.90;;;;;;5056496;28;20196;-63
2023/02/13 01:01:22;;;;;;;15.38;11.98;;;8.00;99.90;;;;;;5056596;28;20198;-63
2023/02/13 01:03:48;;;;;;;16.30;11.70;;;8.00;99.90;;;;;;5056762;28;20232;-61
2023/02/13 01:06:15;;;;;;;18.15;13.20;;;8.00;99.90;;;;;;5056777;28;20201;-61
2023/02/13 01:08:42;;;;;;;13.77;11.18;;;8.00;99.90;;;;;;5056176;28;20206;-63
2023/02/13 01:11:09;;;;;;;16.50;12.45;;;8.00;99.90;;;;;;5056514;28;20205;-63
2023/02/13 01:13:38;;;;;;;15.02;12.05;;;8.00;99.90;;;;;;5056241;28;20237;-62
2023/02/13 01:16:05;;;;;;;13.57;11.30;;;8.00;99.90;;;;;;5056633;28;20676;-61
2023/02/13 01:18:32;;;;;;;14.80;12.95;;;8.00;99.90;;;;;;5056787;28;20579;-62
2023/02/13 01:21:00;;;;;;;18.25;12.65;;;8.00;99.90;;;;;;5056628;28;20206;-62
2023/02/13 01:23:31;;;;;;;16.27;12.48;;;8.00;99.90;;;;;;5056520;28;20227;-63
2023/02/13 01:25:57;;;;;;;14.85;11.27;;;8.00;99.90;;;;;;5056849;28;20181;-62
2023/02/13 01:28:24;;;;;;;15.73;11.20;;;8.00;99.90;;;;;;5056645;28;20223;-62
2023/02/13 01:30:56;;;;;;;16.83;12.85;;;8.00;99.90;;;;;;5056298;28;20207;-62
2023/02/13 01:33:24;;;;;;;16.05;11.60;;;8.00;99.90;;;;;;5056161;28;20222;-63
2023/02/13 01:35:51;;;;;;;13.68;11.63;;;8.00;99.90;;;;;;5055925;28;20221;-63
2023/02/13 01:38:18;;;;;;;17.15;12.50;;;8.00;99.90;;;;;;5054841;28;20691;-62
2023/02/13 01:40:46;;;;;;;14.00;12.48;;;7.90;99.90;;;;;;5055736;28;20206;-62
2023/02/13 01:43:13;;;;;;;15.90;11.32;;;7.90;99.90;;;;;;5055302;28;20713;-60
2023/02/13 01:45:41;;;;;;;22.23;12.55;;;7.90;99.90;;;;;;5055477;28;20669;-61
2023/02/13 01:48:14;;;;;;;16.92;12.35;;;7.90;99.90;;;;;;5055576;28;20225;-61
2023/02/13 01:50:45;;;;;;;15.20;10.90;;;8.00;99.90;;;;;;5055130;28;20554;-61
2023/02/13 01:53:18;;;;;;;14.75;11.07;;;8.00;99.90;;;;;;5055457;28;20713;-62
2023/02/13 01:55:49;;;;;;;16.15;11.93;;;7.90;99.90;;;;;;5055462;28;20186;-62
2023/02/13 01:58:19;;;;;;;17.90;10.70;;;8.00;99.90;;;;;;5055671;28;20208;-62
2023/02/13 02:00:48;;;;;;;16.80;12.13;;;8.00;99.90;;;;;;5055579;28;20209;-62
2023/02/13 02:03:24;;;;;;;17.20;12.18;;;8.00;99.90;;;;;;5055296;28;20593;-63
2023/02/13 02:05:51;;;;;;;18.10;11.55;;;8.00;99.90;;;;;;5055611;28;20197;-61
2023/02/13 02:08:20;;;;;;;16.27;12.20;;;7.90;99.90;;;;;;5055437;28;20210;-62
2023/02/13 02:10:46;;;;;;;15.45;12.57;;;7.90;99.90;;;;;;5055386;28;20209;-62
2023/02/13 02:13:17;;;;;;;15.63;11.07;;;7.90;99.90;;;;;;5055342;28;20229;-62
2023/02/13 02:15:45;;;;;;;13.88;10.23;;;7.90;99.90;;;;;;5055203;28;20220;-62
2023/02/13 02:18:15;;;;;;;17.50;11.20;;;7.90;99.90;;;;;;5055259;28;20217;-62
2023/02/13 02:21:15;;;;;;;16.90;11.50;;;7.90;99.90;;;;;;5054676;28;20708;-61
2023/02/13 02:24:05;;;;;;;14.75;11.35;;;7.90;99.90;;;;;;5054670;28;20254;-62
2023/02/13 02:26:54;;;;;;;14.25;11.20;;;7.90;99.90;;;;;;5054771;28;20677;-62
2023/02/13 02:29:48;;;;;;;17.80;11.30;;;7.80;99.90;;;;;;5054842;28;20561;-63
2023/02/13 02:32:34;;;;;;;13.27;10.25;;;7.80;99.90;;;;;;5054812;28;20242;-64
2023/02/13 02:35:14;;;;;;;20.77;12.35;;;7.90;99.90;;;;;;5055304;28;20190;-63
2023/02/13 02:37:58;;;;;;;14.88;11.07;;;7.90;99.90;;;;;;5054643;28;20210;-61
2023/02/13 02:40:32;;;;;;;15.43;11.45;;;7.90;99.90;;;;;;5055023;28;20192;-62
2023/02/13 02:43:11;;;;;;;21.92;11.77;;;7.80;99.90;;;;;;5054662;28;20254;-62
2023/02/13 02:45:43;;;;;;;14.60;11.80;;;7.90;99.90;;;;;;5054904;28;20197;-63
2023/02/13 02:51:16;;;;;;;16.42;11.18;;;7.80;99.90;;;;;;5053515;28;20185;-62
2023/02/13 02:53:53;;;;;;;18.13;11.55;;;7.90;99.90;;;;;;5054613;28;20593;-62
2023/02/13 02:56:26;;;;;;;14.15;10.30;;;7.90;99.90;;;;;;5054941;28;20214;-61
2023/02/13 03:07:19;;;;;;;14.48;10.98;;;7.80;99.90;;;;;;5054871;28;20181;-62
2023/02/13 03:15:26;;;;;;;13.20;10.18;;;7.80;99.90;;;;;;5054506;28;20646;-63
2023/02/13 03:23:51;;;;;;;15.70;10.52;;;7.80;99.90;;;;;;5012623;28;20230;-62
2023/02/13 03:26:44;;;;;;;15.00;11.02;;;7.80;99.90;;;;;;5040303;28;20202;-62
2023/02/13 03:32:11;;;;;;;14.57;10.57;;;7.80;99.90;;;;;;5054425;28;20205;-62
2023/02/13 03:40:28;;;;;;;15.50;11.35;;;7.80;99.90;;;;;;5055352;28;20200;-62
2023/02/13 03:43:03;;;;;;;13.55;10.25;;;7.90;99.90;;;;;;5053754;28;20254;-62
2023/02/13 03:45:53;;;;;;;14.60;10.80;;;7.90;99.90;;;;;;5052876;28;20516;-62
2023/02/13 03:51:10;;;;;;;12.88;9.98;;;7.90;99.90;;;;;;5053835;28;20547;-61
2023/02/13 03:53:42;;;;;;;15.60;11.95;;;7.90;99.90;;;;;;5052953;28;20419;-61
2023/02/13 03:59:16;;;;;;;14.38;10.85;;;7.90;99.90;;;;;;5054695;28;20246;-62
2023/02/13 04:01:50;;;;;;;16.05;10.55;;;7.90;99.90;;;;;;5054369;28;20251;-62
2023/02/13 04:04:23;;;;;;;13.13;10.18;;;7.90;99.90;;;;;;5054577;28;20419;-62
2023/02/13 04:06:55;;;;;;;12.65;9.23;;;7.90;99.90;;;;;;5054655;28;20538;-62
2023/02/13 04:11:15;;;;;;;12.13;9.63;;;7.90;99.90;;;;;;5095493;28;20522;-64
2023/02/13 04:13:47;;;;;;;12.45;8.30;;;7.90;99.90;;;;;;5094703;28;20221;-63
2023/02/13 04:16:16;;;;;;;12.25;10.20;;;7.90;99.90;;;;;;5100366;28;20219;-63
2023/02/13 04:18:44;;;;;;;11.68;8.70;;;7.90;99.90;;;;;;5096657;28;20287;-63
2023/02/13 04:21:10;;;;;;;17.15;9.82;;;7.90;99.90;;;;;;5097466;28;20282;-63
2023/02/13 04:23:37;;;;;;;11.32;8.82;;;7.80;99.90;;;;;;5111963;22;20581;-67
2023/02/13 04:26:08;;;;;;;11.50;9.32;;;7.80;99.90;;;;;;5050703;28;20186;-66
2023/02/13 04:28:36;;;;;;;14.05;9.93;;;7.80;99.90;;;;;;5050667;28;20194;-66
2023/02/13 04:31:03;;;;;;;13.07;9.30;;;7.90;99.90;;;;;;5050440;28;20339;-66
2023/02/13 04:33:30;;;;;;;10.88;8.68;;;7.90;99.90;;;;;;5050090;28;20744;-66
2023/02/13 04:35:57;;;;;;;14.18;9.15;;;7.90;99.90;;;;;;5050430;28;20606;-66
2023/02/13 04:38:23;;;;;;;12.38;8.75;;;7.90;99.90;;;;;;5050391;28;20216;-67
2023/02/13 04:40:50;;;;;;;11.98;8.85;;;7.90;99.90;;;;;;5050363;28;20224;-66
2023/02/13 04:43:17;;;;;;;12.93;9.02;;;7.90;99.90;;;;;;5049895;28;20202;-67
2023/02/13 04:45:48;;;;;;;13.00;9.75;;;7.90;99.90;;;;;;5049209;28;20471;-67
2023/02/13 04:48:15;;;;;;;13.45;9.13;;;7.90;99.90;;;;;;5050116;28;20182;-66
2023/02/13 04:50:42;;;;;;;12.75;9.63;;;7.90;99.90;;;;;;5050444;28;20247;-67
2023/02/13 04:53:09;;;;;;;11.23;8.13;;;7.90;99.90;;;;;;5049934;28;20208;-67
2023/02/13 04:55:36;;;;;;;19.38;9.50;;;7.90;99.90;;;;;;5050042;28;20205;-67
2023/02/13 04:58:02;;;;;;;10.30;8.45;;;7.90;99.90;;;;;;5050296;28;20685;-67
2023/02/13 05:00:29;;;;;;;10.82;8.77;;;7.90;99.90;;;;;;5049881;28;20614;-66
2023/02/13 05:03:05;;;;;;;13.20;8.90;;;7.90;99.90;;;;;;5050275;28;20255;-66
2023/02/13 05:05:32;;;;;;;13.25;9.20;;;7.90;99.90;;;;;;5050880;28;20256;-67
2023/02/13 05:07:59;;;;;;;14.48;8.73;;;7.90;99.90;;;;;;5050687;28;20686;-66
2023/02/13 05:10:25;;;;;;;13.10;9.82;;;7.90;99.90;;;;;;5050185;28;20226;-66
2023/02/13 05:12:52;;;;;;;11.90;8.52;;;7.90;99.90;;;;;;5050106;28;20577;-66
2023/02/13 05:15:19;;;;;;;11.35;8.25;;;7.80;99.90;;;;;;5049515;28;20221;-66
2023/02/13 05:17:46;;;;;;;11.10;8.80;;;7.90;99.90;;;;;;5049967;28;20674;-66
2023/02/13 05:20:15;;;;;;;12.63;9.10;;;7.90;99.90;;;;;;5048666;28;20194;-66
2023/02/13 05:25:29;;;;;;;12.07;8.77;;;7.90;99.90;;;;;;5034847;28;20245;-66
2023/02/13 05:27:55;;;;;;;11.77;8.10;;;7.90;99.90;;;;;;5035226;28;20198;-67
2023/02/13 05:30:21;;;;;;;10.60;8.38;;;7.90;99.90;;;;;;5035586;28;20226;-66
2023/02/13 05:32:49;;;;;;;13.90;9.23;;;7.90;99.90;;;;;;5035602;28;20195;-67
2023/02/13 05:35:18;;;;;;;10.80;8.15;;;7.90;99.90;;;;;;5035314;28;20988;-67
2023/02/13 05:37:45;;;;;;;12.20;8.82;;;7.90;99.90;;;;;;5035118;28;20300;-67
2023/02/13 05:40:13;;;;;;;12.73;9.80;;;7.90;99.90;;;;;;5024410;28;20426;-68
2023/02/13 05:42:40;;;;;;;12.67;9.43;;;7.90;99.90;;;;;;5034872;28;20481;-67
2023/02/13 05:45:07;;;;;;;11.93;9.70;;;7.90;99.90;;;;;;5034862;28;20458;-67
2023/02/13 05:47:34;;;;;;;12.80;9.38;;;7.90;99.90;;;;;;5034430;28;20415;-66
2023/02/13 05:50:01;;;;;;;12.10;8.55;;;8.00;99.90;;;;;;5035565;28;20223;-67
2023/02/13 05:52:29;;;;;;;10.80;8.48;;;8.00;99.90;;;;;;5035704;28;20203;-66
2023/02/13 05:54:56;;;;;;;12.35;8.65;;;7.90;99.90;;;;;;5037649;28;20317;-67
2023/02/13 05:57:23;;;;;;;13.18;9.35;;;7.90;99.90;;;;;;5034352;28;20415;-67
2023/02/13 05:59:50;;;;;;;14.10;9.30;;;7.90;99.90;;;;;;5034542;28;20519;-67
2023/02/13 06:02:16;;;;;;;13.23;10.13;;;7.90;99.90;;;;;;5032499;28;20439;-67
2023/02/13 06:04:43;;;;;;;10.32;8.82;;;8.00;99.90;;;;;;5039944;28;20928;-67
2023/02/13 06:07:10;;;;;;;12.13;9.93;;;8.00;99.90;;;;;;5034420;28;20838;-66
2023/02/13 06:09:38;;;;;;;11.10;9.30;;;8.00;99.90;;;;;;5035772;28;20229;-67
2023/02/13 06:12:06;;;;;;;13.00;8.93;;;7.90;99.90;;;;;;5033295;28;20203;-68
2023/02/13 06:14:32;;;;;;;11.23;9.23;;;7.90;99.90;;;;;;5034480;28;20226;-67
2023/02/13 06:17:01;;;;;;;12.07;9.00;;;8.00;99.90;;;;;;5033832;28;20514;-67
2023/02/13 06:19:28;;;;;;;12.80;8.90;;;8.00;99.90;;;;;;5031644;28;20205;-70
2023/02/13 06:21:54;;;;;;;10.80;9.25;;;7.90;99.90;;;;;;5030369;28;20633;-68
2023/02/13 06:24:21;;;;;;;11.75;8.02;;;7.90;99.90;;;;;;5032697;28;20242;-67
2023/02/13 06:26:49;;;;;;;15.15;7.63;;;7.90;99.90;;;;;;5030145;28;20206;-68
2023/02/13 06:29:16;;;;;;;12.63;8.95;;;7.90;99.90;;;;;;5044798;28;20654;-67
2023/02/13 06:31:43;;;;;;;12.93;8.07;;;7.80;99.90;;;;;;5043976;28;20218;-68
2023/02/13 06:34:10;;;;;;;13.60;9.40;;;7.80;99.90;;;;;;5033113;28;20226;-67
2023/02/13 06:36:37;;;;;;;11.13;9.00;;;7.80;99.90;;;;;;5033876;28;20662;-67
2023/02/13 06:39:04;;;;;;;11.70;9.15;;;7.90;99.90;;;;;;5030091;28;20194;-66
2023/02/13 06:41:31;;;;;;;11.40;7.95;;;7.80;99.90;;;;;;5022507;28;20203;-66
2023/02/13 06:43:59;;;;;;;10.80;8.40;;;7.90;99.90;;;;;;5026823;28;20234;-68
2023/02/13 06:46:26;;;;;;;11.70;8.43;;;7.90;99.90;;;;;;5029231;28;20268;-67
2023/02/13 06:48:53;;;;;;;12.20;8.07;;;7.90;99.90;;;;;;5031566;28;20658;-68
2023/02/13 06:51:19;;;;;;;8.93;7.57;;;7.90;99.90;;;;;;5030455;28;20441;-67
2023/02/13 06:53:46;;;;;;;10.90;9.00;;;7.90;99.90;;;;;;5030712;28;20229;-68
2023/02/13 06:56:13;;;;;;;8.23;6.78;;;7.90;99.90;;;;;;5028743;28;20203;-69
2023/02/13 06:58:40;;;;;;;10.25;7.40;;;7.90;99.90;;;;;;5025375;28;20446;-67
2023/02/13 07:01:08;;;;;;;8.80;6.78;;;7.90;99.90;;;;;;5034932;28;20632;-67
2023/02/13 07:03:35;;;;;;;8.75;7.22;;;7.80;99.90;;;;;;5034277;28;20223;-66
2023/02/13 07:06:02;;;;;;;10.98;8.10;;;7.90;99.90;;;;;;5032602;28;20435;-68
2023/02/13 07:08:29;;;;;;;11.55;7.47;;;7.80;99.90;;;;;;5038011;28;20209;-67
2023/02/13 07:10:56;;;;;;;10.63;7.57;;;7.90;99.90;;;;;;5053882;28;20248;-66
2023/02/13 07:13:23;;;;;;;8.68;6.78;;;7.90;99.90;;;;;;5047797;28;20207;-66
2023/02/13 07:15:49;;;;;;;9.57;6.97;;;7.90;99.90;;;;;;5032034;28;20213;-67
2023/02/13 07:18:18;;;;;;;11.15;7.30;;;7.90;99.90;;;;;;5033566;28;20525;-67
2023/02/13 07:20:44;;;;;;;10.18;7.80;;;8.00;99.90;;;;;;5029102;28;21104;-66
2023/02/13 07:23:11;;;;;;;9.60;6.88;;;8.00;99.90;;;;;;5033155;28;20572;-68
2023/02/13 07:25:38;;;;;;;11.35;7.47;;;8.00;99.90;;;;;;5033963;28;20202;-68
2023/02/13 07:28:06;;;;;;;10.05;6.18;;;8.00;99.90;;;;;;5032861;28;20230;-68
2023/02/13 07:30:34;;;;;;;8.88;6.60;;;7.90;99.90;;;;;;5014074;28;20231;-67
2023/02/13 07:33:02;;;;;;;10.00;6.43;;;8.00;99.90;;;;;;5013812;28;20210;-67
2023/02/13 07:35:30;;;;;;;10.18;7.05;;;8.00;99.90;;;;;;5032772;28;20218;-67
2023/02/13 07:37:59;;;;;;;9.02;7.00;;;8.00;99.90;;;;;;5029431;28;20437;-68
2023/02/13 07:40:26;;;;;;;9.63;7.50;;;8.00;99.90;;;;;;5032658;28;20269;-67
2023/02/13 07:42:52;;;;;;;9.32;7.03;;;8.00;99.90;;;;;;5033605;28;20211;-67
2023/02/13 07:45:19;;;;;;;9.07;7.40;;;8.00;99.90;;;;;;5031574;28;20438;-67
2023/02/13 07:47:46;;;;;;;10.70;7.57;;;8.00;99.90;;;;;;5031548;28;20731;-66
2023/02/13 07:50:13;;;;;;;9.10;6.88;;;8.00;99.90;;;;;;5032145;28;20222;-67
2023/02/13 07:52:41;;;;;;;10.18;6.68;;;8.00;99.90;;;;;;5033223;28;20692;-68
2023/02/13 07:55:10;;;;;;;11.13;7.90;;;8.10;99.90;;;;;;5033018;28;20219;-68
2023/02/13 07:57:37;;;;;;;8.75;6.43;;;8.00;99.90;;;;;;5032867;28;20206;-68
2023/02/13 08:00:04;;;;;;;8.40;6.22;;;8.10;99.90;;;;;;5033481;28;20210;-68
2023/02/13 08:02:31;;;;;;;9.63;6.65;;;8.10;99.90;;;;;;5033071;28;20206;-67
2023/02/13 08:04:58;;;;;;;9.30;6.55;;;8.10;99.90;;;;;;5033320;28;20237;-67
2023/02/13 08:07:24;;;;;;;13.13;7.72;;;8.10;99.90;;;;;;5034037;28;20670;-67
2023/02/13 08:12:37;;;;;;;9.18;6.70;;;8.10;99.90;;;;;;5032645;28;20186;-67
2023/02/13 08:15:05;;;;;;;9.55;6.78;;;8.10;99.90;;;;;;5033492;28;20230;-67
2023/02/13 08:17:32;;;;;;;8.38;6.05;;;8.10;99.90;;;;;;5033411;28;20206;-67
2023/02/13 08:19:58;;;;;;;11.70;7.05;;;8.10;99.90;;;;;;5033093;28;20225;-66
2023/02/13 08:22:25;;;;;;;8.60;6.43;;;8.20;99.90;;;;;;5033224;28;20202;-66
2023/02/13 08:24:53;;;;;;;9.00;6.80;;;8.20;99.90;;;;;;5032981;28;20238;-67
2023/02/13 08:27:21;;;;;;;10.57;6.72;;;8.20;99.90;;;;;;5033260;28;20202;-68
2023/02/13 08:29:49;;;;;;;13.40;6.15;;;8.20;99.90;;;;;;5033683;28;20214;-67
2023/02/13 08:32:15;;;;;;;10.50;6.60;;;8.30;99.90;;;;;;5033389;28;20554;-68
2023/02/13 08:34:42;;;;;;;10.77;6.72;;;8.30;99.90;;;;;;5033225;28;20225;-68
2023/02/13 08:37:09;;;;;;;10.52;6.60;;;8.40;99.90;;;;;;5031711;28;20445;-67
2023/02/13 08:39:36;;;;;;;8.98;6.40;;;8.40;99.90;;;;;;5032950;28;20214;-68
2023/02/13 08:42:04;;;;;;;9.10;6.55;;;8.40;99.90;;;;;;5032923;28;20232;-66
2023/02/13 08:44:31;;;;;;;9.32;6.40;;;8.50;99.90;;;;;;5032672;28;20230;-67
2023/02/13 08:46:59;;;;;;;7.80;5.50;;;8.50;99.90;;;;;;5032887;28;20210;-66
2023/02/13 08:49:26;;;;;;;10.48;7.00;;;8.50;99.90;;;;;;5033300;28;20213;-66
2023/02/13 08:51:53;;;;;;;11.48;7.43;;;8.50;99.90;;;;;;5033194;28;20698;-67
2023/02/13 08:54:20;;;;;;;10.85;7.78;;;8.50;99.90;;;;;;5033330;28;20214;-67
2023/02/13 08:56:47;;;;;;;11.50;6.75;;;8.60;99.90;;;;;;5035098;28;20297;-66
2023/02/13 08:59:15;;;;;;;7.78;5.88;;;8.70;99.90;;;;;;5037182;28;20208;-65
2023/02/13 09:01:42;;;;;;;9.63;6.70;;;8.70;99.90;;;;;;5037142;28;20501;-67
2023/02/13 09:04:08;;;;;;;9.20;6.90;;;8.80;99.90;;;;;;5035968;28;20419;-67
2023/02/13 09:06:35;;;;;;;8.65;7.00;;;8.80;99.90;;;;;;5036942;28;20446;-66
2023/02/13 09:09:03;;;;;;;7.68;6.10;;;8.90;99.90;;;;;;5036729;28;20294;-67
2023/02/13 09:11:30;;;;;;;9.65;7.10;;;9.00;99.90;;;;;;5036633;28;20218;-66
2023/02/13 09:13:57;;;;;;;8.95;7.43;;;9.10;99.90;;;;;;5036319;28;20311;-67
2023/02/13 09:16:25;;;;;;;9.57;7.30;;;9.10;99.90;;;;;;5042645;28;20199;-68
2023/02/13 09:18:52;;;;;;;8.82;6.20;;;9.20;99.90;;;;;;5039178;28;20554;-71
2023/02/13 09:21:21;;;;;;;9.68;5.60;;;9.20;99.90;;;;;;5036812;28;20686;-69
2023/02/13 09:23:49;;;;;;;6.72;5.35;;;9.20;99.90;;;;;;5036083;28;20234;-66
2023/02/13 09:26:16;;;;;;;8.13;5.32;;;9.20;99.90;;;;;;5037217;28;20234;-69
2023/02/13 09:28:43;;;;;;;8.90;6.05;;;9.20;99.90;;;;;;5037608;28;20205;-66
2023/02/13 09:31:13;;;;;;;9.75;5.75;;;9.20;99.90;;;;;;5037067;28;20715;-68
2023/02/13 09:33:42;;;;;;;9.85;6.93;;;9.20;99.90;;;;;;5036780;28;20423;-67
2023/02/13 09:36:11;;;;;;;15.65;6.85;;;9.20;99.90;;;;;;5038294;28;20228;-65
2023/02/13 09:38:37;;;;;;;8.20;6.65;;;9.20;99.90;;;;;;5037344;28;20203;-68
2023/02/13 09:41:09;;;;;;;12.18;7.22;;;9.30;99.90;;;;;;5038129;28;20206;-67
2023/02/13 09:43:42;;;;;;;10.52;6.93;;;9.40;99.90;;;;;;5035630;28;20438;-69
2023/02/13 09:46:13;;;;;;;7.35;5.90;;;9.40;99.90;;;;;;5036744;28;20187;-67
2023/02/13 09:48:44;;;;;;;7.97;6.00;;;9.40;99.90;;;;;;5036237;28;20191;-68
2023/02/13 09:51:15;;;;;;;8.90;5.40;;;9.40;99.90;;;;;;5037206;28;20703;-67
2023/02/13 09:53:49;;;;;;;9.18;6.38;;;9.50;99.90;;;;;;5036778;28;20782;-70
2023/02/13 09:56:21;;;;;;;15.03;6.37;;;9.50;99.90;;;;;;5039494;28;20186;-72
2023/02/13 09:58:49;;;;;;;10.00;5.57;;;9.60;99.90;;;;;;5038598;28;20438;-70
2023/02/13 10:01:26;;;;;;;6.43;5.10;;;9.70;99.90;;;;;;5037603;28;20440;-74
2023/02/13 10:04:15;;;;;;;9.47;6.13;;;9.80;99.90;;;;;;5036708;28;20233;-72
2023/02/13 10:06:49;;;;;;;9.33;5.20;;;10.00;99.90;;;;;;5037925;28;20941;-74
2023/02/13 10:09:22;;;;;;;8.20;5.23;;;10.10;99.90;;;;;;5039272;28;20450;-70
2023/02/13 10:12:13;;;;;;;8.20;5.93;;;10.10;99.90;;;;;;5037231;28;20463;-67
2023/02/13 10:14:51;;;;;;;12.77;6.20;;;10.10;99.90;;;;;;5036197;28;20468;-72
2023/02/13 10:17:24;;;;;;;7.20;4.90;;;10.10;99.90;;;;;;5037622;28;20430;-68
2023/02/13 10:19:56;;;;;;;7.67;6.10;;;10.10;99.90;;;;;;5039307;28;20457;-72
2023/02/13 10:22:29;;;;;;;7.70;5.60;;;10.10;99.90;;;;;;5038699;28;20431;-74
2023/02/13 10:24:59;;;;;;;7.97;5.47;;;10.20;99.90;;;;;;5067853;22;21005;-64
2023/02/13 10:27:31;;;;;;;9.47;5.80;;;10.20;99.90;;;;;;5034593;28;20429;-65
2023/02/13 10:30:05;;;;;;;7.60;5.67;;;10.30;99.90;;;;;;5034735;28;20441;-67
2023/02/13 10:32:41;;;;;;;8.83;5.70;;;10.50;99.90;;;;;;5034544;28;20469;-64
2023/02/13 10:35:19;;;;;;;8.40;6.00;;;10.60;99.90;;;;;;5034664;28;20484;-64
2023/02/13 10:37:49;;;;;;;5.73;4.40;;;10.60;99.90;;;;;;5034824;28;20441;-65
2023/02/13 10:40:17;;;;;;;5.80;4.80;;;10.70;99.90;;;;;;5034814;28;20443;-66
2023/02/13 10:42:46;;;;;;;7.57;6.00;;;10.60;99.90;;;;;;5035150;28;20549;-66
2023/02/13 10:45:38;;;;;;;7.53;5.13;;;10.50;99.90;;;;;;5034629;28;20468;-67
2023/02/13 10:48:15;;;;;;;8.67;4.50;;;10.50;99.90;;;;;;5033681;28;20911;-65
2023/02/13 10:50:53;;;;;;;7.70;5.70;;;10.60;99.90;;;;;;5033861;28;20437;-64
2023/02/13 10:53:27;;;;;;;6.00;4.17;;;10.60;99.90;;;;;;5034164;28;20430;-66
2023/02/13 10:56:05;;;;;;;10.07;5.20;;;10.60;99.90;;;;;;5034132;28;20576;-64
2023/02/13 10:58:43;;;;;;;6.53;4.40;;;10.50;99.90;;;;;;5034011;28;20858;-65
2023/02/13 11:01:19;;;;;;;10.40;4.50;;;10.50;99.90;;;;;;5034362;28;20437;-64
2023/02/13 11:03:48;;;;;;;6.83;4.50;;;10.50;99.90;;;;;;5034013;28;20430;-67
2023/02/13 11:06:19;;;;;;;6.50;5.43;;;10.70;99.90;;;;;;5033752;28;20534;-65
2023/02/13 11:08:47;;;;;;;14.63;9.70;;;10.80;99.90;;;;;;5033783;28;20837;-65
2023/02/13 11:11:31;;;;;;;15.77;10.83;;;10.90;99.90;;;;;;5033615;28;20890;-67
2023/02/13 11:14:16;;;;;;;10.70;5.83;;;11.00;99.90;;;;;;5033842;28;20455;-67
2023/02/13 11:16:49;;;;;;;12.00;7.70;;;11.10;99.90;;;;;;5033135;28;20455;-67
2023/02/13 11:19:19;;;;;;;9.57;5.30;;;11.20;99.90;;;;;;5034024;28;20435;-66
2023/02/13 11:21:49;;;;;;;6.93;4.50;;;11.30;99.90;;;;;;5033881;28;20427;-64
2023/02/13 11:24:20;;;;;;;8.77;5.30;;;11.40;99.90;;;;;;5033427;28;20975;-66
2023/02/13 11:26:51;;;;;;;7.77;5.60;;;11.50;99.90;;;;;;5034267;28;20427;-66
2023/02/13 11:29:23;;;;;;;4.90;4.30;;;11.50;99.90;;;;;;5035760;28;20425;-66
2023/02/13 11:32:06;;;;;;;5.90;4.77;;;11.60;99.90;;;;;;5036350;28;20471;-68
2023/02/13 11:34:34;;;;;;;5.00;4.13;;;11.60;99.90;;;;;;5039131;28;20466;-69
2023/02/13 11:37:21;;;;;;;6.63;4.60;;;11.60;99.90;;;;;;5036737;28;20455;-66
2023/02/13 11:39:50;;;;;;;7.13;4.63;;;11.60;99.90;;;;;;5035115;28;20510;-66
2023/02/13 11:42:20;;;;;;;4.57;3.50;;;11.40;99.90;;;;;;5036362;28;20458;-66
2023/02/13 11:44:51;;;;;;;6.40;3.80;;;11.40;99.90;;;;;;5035204;28;20476;-65
2023/02/13 11:47:34;;;;;;;5.17;3.73;;;11.40;99.90;;;;;;5033652;28;20427;-63
2023/02/13 11:50:01;;;;;;;5.03;3.30;;;11.40;99.90;;;;;;5044955;28;20446;-64
2023/02/13 11:52:32;;;;;;;5.40;3.20;;;11.60;99.90;;;;;;5046867;28;20540;-66
2023/02/13 11:55:00;;;;;;;6.13;4.37;;;11.60;99.90;;;;;;5033850;28;20565;-67
2023/02/13 11:57:31;;;;;;;4.53;2.83;;;11.70;99.90;;;;;;5032731;28;20478;-65
2023/02/13 11:59:59;;;;;;;4.57;3.30;;;11.70;99.90;;;;;;5033423;28;20431;-68
2023/02/13 12:02:28;;;;;;;4.07;3.57;;;11.80;99.90;;;;;;5033089;28;20459;-66
2023/02/13 12:05:15;;;;;;;5.20;3.07;;;11.90;99.90;;;;;;5032582;28;20497;-66
2023/02/13 12:07:44;;;;;;;8.50;5.10;;;11.90;99.90;;;;;;5032752;28;20456;-65
2023/02/13 12:10:19;;;;;;;3.87;3.00;;;11.90;99.90;;;;;;5034091;28;20447;-64
2023/02/13 12:12:54;;;;;;;6.73;3.97;;;11.90;99.90;;;;;;5035853;28;20481;-67
2023/02/13 12:15:22;;;;;;;4.73;3.63;;;11.80;99.90;;;;;;5035191;28;20467;-66
2023/02/13 12:17:59;;;;;;;4.77;3.63;;;11.70;99.90;;;;;;5034529;28;20506;-65
2023/02/13 12:20:28;;;;;;;4.83;3.10;;;11.70;99.90;;;;;;5035019;28;20442;-63
2023/02/13 12:23:03;;;;;;;4.93;3.20;;;11.80;99.90;;;;;;5032369;28;20467;-65
2023/02/13 12:25:45;;;;;;;3.17;2.50;;;11.90;99.90;;;;;;5034676;28;20485;-63
2023/02/13 12:28:15;;;;;;;4.00;3.30;;;12.00;99.90;;;;;;5033387;28;20462;-66
2023/02/13 12:31:22;;;;;;;3.10;2.80;;;11.90;99.50;;;;;;5033247;28;20462;-67
2023/02/13 12:34:19;;;;;;;7.87;3.93;;;11.90;99.60;;;;;;5037065;28;20446;-65
2023/02/13 12:36:55;;;;;;;4.33;2.83;;;12.00;99.50;;;;;;5017855;28;20427;-66
2023/02/13 12:39:33;;;;;;;3.80;2.70;;;12.10;99.30;;;;;;5021609;28;20453;-67
2023/02/13 12:42:20;;;;;;;4.47;2.60;;;12.10;99.00;;;;;;5037729;28;20419;-66
2023/02/13 12:45:15;;;;;;;4.17;3.03;;;12.10;98.80;;;;;;5036417;28;20540;-67
2023/02/13 12:47:58;;;;;;;5.30;4.13;;;12.10;98.30;;;;;;5034413;28;20477;-65
2023/02/13 12:50:34;;;;;;;5.30;3.40;;;12.00;98.40;;;;;;5035789;28;20973;-65
2023/02/13 12:53:17;;;;;;;3.33;2.50;;;11.90;98.50;;;;;;5033860;28;20479;-65
2023/02/13 12:56:08;;;;;;;4.33;3.67;;;11.90;98.30;;;;;;5037188;28;20995;-65
2023/02/13 12:58:49;;;;;;;6.63;3.70;;;11.70;97.60;;;;;;5036035;28;20550;-67
2023/02/13 13:01:26;;;;;;;6.50;3.77;;;11.50;98.00;;;;;;5036118;28;20430;-67
2023/02/13 13:04:05;;;;;;;4.87;3.87;;;11.30;98.70;;;;;;5035007;28;20528;-69
2023/02/13 13:06:58;;;;;;;5.90;4.03;;;11.40;98.80;;;;;;5026830;28;20474;-66
2023/02/13 13:09:50;;;;;;;4.30;3.07;;;11.40;98.50;;;;;;5022518;28;20550;-66
2023/02/13 13:12:34;;;;;;;5.47;3.70;;;11.40;98.50;;;;;;5034547;28;20495;-67
2023/02/13 13:15:07;;;;;;;4.30;2.90;;;11.40;98.30;;;;;;5031941;28;20564;-65
2023/02/13 13:17:48;;;;;;;6.10;3.97;;;11.40;98.20;;;;;;5034350;28;20468;-66
2023/02/13 13:20:37;;;;;;;8.03;4.63;;;11.50;98.20;;;;;;5025219;28;20466;-66
2023/02/13 13:23:11;;;;;;;4.03;3.00;;;11.50;97.80;;;;;;5016604;28;20428;-65
2023/02/13 13:25:47;;;;;;;5.00;3.83;;;11.40;97.70;;;;;;5016422;28;20577;-64
2023/02/13 13:28:18;;;;;;;11.50;4.40;;;11.40;97.60;;;;;;5016823;28;20436;-66
2023/02/13 13:30:47;;;;;;;6.20;3.97;;;11.40;97.60;;;;;;5016256;28;20439;-72
2023/02/13 13:33:16;;;;;;;7.97;5.07;;;11.20;97.40;;;;;;5018681;28;20486;-67
2023/02/13 13:35:49;;;;;;;5.77;4.60;;;11.20;97.70;;;;;;5017574;28;20671;-67
2023/02/13 13:38:21;;;;;;;13.37;6.70;;;11.10;97.60;;;;;;5018518;28;20428;-66
2023/02/13 13:40:55;;;;;;;7.83;3.40;;;11.00;97.60;;;;;;5016625;28;20782;-64
2023/02/13 13:43:37;;;;;;;5.40;4.17;;;11.00;97.70;;;;;;5024090;28;20554;-66
2023/02/13 13:46:12;;;;;;;5.33;4.60;;;11.10;97.70;;;;;;5035079;28;20492;-65
2023/02/13 13:48:53;;;;;;;7.20;4.53;;;11.10;97.70;;;;;;5035868;28;20807;-65